createdAt,value
2017-11-21T00:02:01.605Z,100715.92
2017-11-21T00:04:29.235Z,100708.27
2017-11-21T00:06:57.088Z,100706.32
2017-11-21T00:09:24.677Z,100701.44
2017-11-21T00:11:52.333Z,100699.63
2017-11-21T00:14:19.929Z,100703.18
2017-11-21T00:16:47.544Z,100705.59
2017-11-21T00:19:15.127Z,100700.38
2017-11-21T00:21:43.065Z,100689.17
2017-11-21T00:24:10.690Z,100689.34
2017-11-21T00:26:38.334Z,100684.95
2017-11-21T00:29:06.259Z,100680.25
2017-11-21T00:31:33.843Z,100691.92
2017-11-21T00:34:01.443Z,100693.72
2017-11-21T00:36:29.057Z,100693.31
2017-11-21T00:38:56.659Z,100704.36
2017-11-21T00:41:24.299Z,100695.36
2017-11-21T00:43:51.899Z,100692.16
2017-11-21T00:46:19.806Z,100688.89
2017-11-21T00:48:47.425Z,100688.76
2017-11-21T00:51:15.010Z,100687.20
2017-11-21T00:53:42.892Z,100684.65
2017-11-21T00:56:10.521Z,100677.71
2017-11-21T00:58:38.110Z,100671.52
2017-11-21T01:01:05.736Z,100676.09
2017-11-21T01:03:33.339Z,100682.34
2017-11-21T01:06:00.973Z,100672.17
2017-11-21T01:08:28.559Z,100676.73
2017-11-21T01:10:56.140Z,100674.66
2017-11-21T01:13:23.763Z,100670.23
2017-11-21T01:15:51.383Z,100662.62
2017-11-21T01:18:19.011Z,100657.16
2017-11-21T01:20:46.620Z,100653.91
2017-11-21T01:23:14.201Z,100648.51
2017-11-21T01:25:41.837Z,100644.48
2017-11-21T01:28:09.762Z,100643.17
2017-11-21T01:30:37.730Z,100635.35
2017-11-21T01:33:05.377Z,100632.47
2017-11-21T01:35:32.957Z,100637.67
2017-11-21T01:38:00.580Z,100636.68
2017-11-21T01:40:28.591Z,100639.39
2017-11-21T01:42:56.214Z,100643.14
2017-11-21T01:45:23.808Z,100646.52
2017-11-21T01:47:51.389Z,100644.91
2017-11-21T01:50:18.993Z,100646.37
2017-11-21T01:52:46.593Z,100640.90
2017-11-21T01:55:14.219Z,100645.47
2017-11-21T01:57:41.829Z,100635.15
2017-11-21T02:00:09.453Z,100632.51
2017-11-21T02:02:37.068Z,100647.02
2017-11-21T02:05:04.714Z,100653.05
2017-11-21T02:07:32.340Z,100653.78
2017-11-21T02:09:59.924Z,100651.25
2017-11-21T02:12:27.545Z,100647.95
2017-11-21T02:14:55.157Z,100640.70
2017-11-21T02:17:22.746Z,100634.67
2017-11-21T02:19:50.370Z,100632.73
2017-11-21T02:22:17.969Z,100622.16
2017-11-21T02:24:45.565Z,100616.27
2017-11-21T02:27:13.175Z,100606.67
2017-11-21T02:29:40.761Z,100612.91
2017-11-21T02:32:08.398Z,100608.31
2017-11-21T02:34:35.987Z,100605.88
2017-11-21T02:37:03.577Z,100610.57
2017-11-21T02:39:31.237Z,100607.38
2017-11-21T02:41:59.141Z,100602.29
2017-11-21T02:44:26.765Z,100601.48
2017-11-21T02:46:54.359Z,100598.44
2017-11-21T02:49:21.941Z,100587.22
2017-11-21T02:51:49.567Z,100595.75
2017-11-21T02:54:17.155Z,100588.88
2017-11-21T02:56:44.787Z,100592.06
2017-11-21T02:59:12.378Z,100595.00
2017-11-21T03:01:39.969Z,100594.03
2017-11-21T03:04:07.583Z,100596.40
2017-11-21T03:06:35.221Z,100606.72
2017-11-21T03:09:02.845Z,100598.02
2017-11-21T03:11:30.433Z,100600.83
2017-11-21T03:13:58.022Z,100605.42
2017-11-21T03:16:25.630Z,100607.16
2017-11-21T03:18:53.245Z,100610.96
2017-11-21T03:21:32.714Z,100604.56
2017-11-21T03:24:12.098Z,100608.60
2017-11-21T03:26:39.744Z,100610.68
2017-11-21T03:29:07.321Z,100596.22
2017-11-21T03:31:34.950Z,100582.25
2017-11-21T03:34:02.567Z,100572.55
2017-11-21T03:36:30.195Z,100578.67
2017-11-21T03:38:57.817Z,100581.91
2017-11-21T03:41:25.406Z,100582.58
2017-11-21T03:43:53.005Z,100580.38
2017-11-21T03:46:20.613Z,100582.77
2017-11-21T03:48:48.197Z,100577.04
2017-11-21T03:51:15.845Z,100575.11
2017-11-21T03:53:43.438Z,100567.67
2017-11-21T03:56:11.063Z,100555.65
2017-11-21T03:58:38.683Z,100552.66
2017-11-21T04:01:07.307Z,100555.97
2017-11-21T04:03:34.987Z,100557.36
2017-11-21T04:06:02.588Z,100550.89
2017-11-21T04:08:30.180Z,100551.06
2017-11-21T04:10:57.798Z,100539.14
2017-11-21T04:13:25.389Z,100535.73
2017-11-21T04:15:53.008Z,100536.91
2017-11-21T04:18:20.604Z,100540.95
2017-11-21T04:20:48.482Z,100556.47
2017-11-21T04:23:16.102Z,100554.77
2017-11-21T04:25:43.697Z,100563.22
2017-11-21T04:28:11.341Z,100571.21
2017-11-21T04:30:38.925Z,100580.91
2017-11-21T04:33:06.553Z,100582.86
2017-11-21T04:35:34.162Z,100590.27
2017-11-21T04:38:01.771Z,100590.59
2017-11-21T04:40:29.384Z,100588.62
2017-11-21T04:42:57.005Z,100591.36
2017-11-21T04:45:24.636Z,100585.17
2017-11-21T04:47:52.489Z,100586.00
2017-11-21T04:50:20.092Z,100579.70
2017-11-21T04:52:47.712Z,100578.94
2017-11-21T04:55:15.325Z,100577.41
2017-11-21T04:57:42.971Z,100579.56
2017-11-21T05:00:10.586Z,100577.80
2017-11-21T05:02:38.212Z,100581.27
2017-11-21T05:05:05.871Z,100580.16
2017-11-21T05:07:33.807Z,100577.34
2017-11-21T05:10:01.457Z,100568.75
2017-11-21T05:12:29.049Z,100566.20
2017-11-21T05:14:56.638Z,100557.51
2017-11-21T05:17:24.358Z,100560.95
2017-11-21T05:19:51.933Z,100562.24
2017-11-21T05:22:19.563Z,100559.63
2017-11-21T05:24:47.441Z,100563.22
2017-11-21T05:27:15.025Z,100552.92
2017-11-21T05:29:42.676Z,100548.77
2017-11-21T05:32:26.140Z,100552.02
2017-11-21T05:34:53.770Z,100546.81
2017-11-21T05:37:21.409Z,100542.16
2017-11-21T05:39:48.997Z,100537.95
2017-11-21T05:42:16.612Z,100541.59
2017-11-21T05:44:44.318Z,100530.30
2017-11-21T05:47:11.959Z,100534.83
2017-11-21T05:49:39.644Z,100533.57
2017-11-21T05:52:07.234Z,100531.03
2017-11-21T05:54:35.008Z,100539.87
2017-11-21T05:57:02.608Z,100537.92
2017-11-21T05:59:30.246Z,100537.81
2017-11-21T06:01:57.830Z,100534.69
2017-11-21T06:04:25.517Z,100531.31
2017-11-21T06:06:53.141Z,100527.24
2017-11-21T06:09:20.733Z,100526.02
2017-11-21T06:11:48.360Z,100525.95
2017-11-21T06:14:16.191Z,100529.75
2017-11-21T06:16:43.786Z,100527.45
2017-11-21T06:19:11.693Z,100526.59
2017-11-21T06:21:39.365Z,100527.97
2017-11-21T06:24:07.330Z,100528.11
2017-11-21T06:26:34.938Z,100527.24
2017-11-21T06:29:02.532Z,100531.69
2017-11-21T06:31:30.152Z,100532.59
2017-11-21T06:33:57.759Z,100533.50
2017-11-21T06:36:25.365Z,100530.86
2017-11-21T06:38:53.001Z,100528.22
2017-11-21T06:41:20.626Z,100531.00
2017-11-21T06:43:48.258Z,100532.73
2017-11-21T06:46:16.190Z,100535.07
2017-11-21T06:48:43.794Z,100535.42
2017-11-21T06:51:11.735Z,100537.16
2017-11-21T06:53:39.403Z,100534.16
2017-11-21T06:56:07.024Z,100530.58
2017-11-21T06:58:34.625Z,100536.70
2017-11-21T07:01:02.213Z,100539.76
2017-11-21T07:03:29.838Z,100547.79
2017-11-21T07:05:57.704Z,100547.41
2017-11-21T07:08:25.369Z,100550.13
2017-11-21T07:10:52.959Z,100545.27
2017-11-21T07:13:20.598Z,100554.09
2017-11-21T07:15:48.562Z,100558.13
2017-11-21T07:18:16.165Z,100551.97
2017-11-21T07:20:43.793Z,100556.60
2017-11-21T07:23:11.401Z,100557.38
2017-11-21T07:25:39.319Z,100562.80
2017-11-21T07:28:06.939Z,100557.72
2017-11-21T07:30:34.543Z,100553.79
2017-11-21T07:33:02.203Z,100559.98
2017-11-21T07:35:29.812Z,100556.61
2017-11-21T07:38:00.405Z,100564.26
2017-11-21T07:40:28.074Z,100571.19
2017-11-21T07:42:55.697Z,100574.73
2017-11-21T07:45:23.348Z,100571.78
2017-11-21T07:47:51.181Z,100561.27
2017-11-21T07:50:18.824Z,100563.77
2017-11-21T07:52:46.482Z,100563.45
2017-11-21T07:55:14.167Z,100556.21
2017-11-21T07:57:41.837Z,100554.16
2017-11-21T08:00:09.476Z,100555.66
2017-11-21T08:02:37.440Z,100546.53
2017-11-21T08:05:05.073Z,100543.98
2017-11-21T08:07:32.656Z,100545.20
2017-11-21T08:10:00.295Z,100550.98
2017-11-21T08:12:27.898Z,100550.78
2017-11-21T08:14:55.750Z,100553.14
2017-11-21T08:17:23.617Z,100560.18
2017-11-21T08:19:51.443Z,100560.11
2017-11-21T08:22:19.407Z,100565.64
2017-11-21T08:24:47.778Z,100561.91
2017-11-21T08:27:15.403Z,100560.34
2017-11-21T08:29:43.063Z,100562.32
2017-11-21T08:32:10.700Z,100560.57
2017-11-21T08:34:38.367Z,100572.48
2017-11-21T08:37:05.973Z,100571.02
2017-11-21T08:39:33.937Z,100576.78
2017-11-21T08:42:01.564Z,100578.80
2017-11-21T08:44:29.212Z,100583.33
2017-11-21T08:46:56.901Z,100579.77
2017-11-21T08:49:24.485Z,100581.34
2017-11-21T08:51:52.230Z,100584.34
2017-11-21T08:54:19.878Z,100586.31
2017-11-21T08:56:57.082Z,100585.55
2017-11-21T08:59:32.855Z,100584.00
2017-11-21T09:02:08.255Z,100581.48
2017-11-21T09:05:04.041Z,100578.05
2017-11-21T09:07:31.855Z,100574.84
2017-11-21T09:10:06.127Z,100578.46
2017-11-21T09:12:43.050Z,100578.11
2017-11-21T09:15:12.369Z,100580.86
2017-11-21T09:17:39.989Z,100584.58
2017-11-21T09:20:07.614Z,100581.72
2017-11-21T09:22:35.236Z,100586.27
2017-11-21T09:25:02.868Z,100583.38
2017-11-21T09:27:34.585Z,100587.02
2017-11-21T09:30:02.492Z,100590.67
2017-11-21T09:32:30.150Z,100585.02
2017-11-21T09:34:57.775Z,100585.95
2017-11-21T09:37:25.517Z,100587.83
2017-11-21T09:39:53.211Z,100587.83
2017-11-21T09:42:21.175Z,100585.61
2017-11-21T09:44:48.773Z,100593.56
2017-11-21T09:47:16.541Z,100596.55
2017-11-21T09:49:44.189Z,100593.91
2017-11-21T09:52:11.828Z,100593.22
2017-11-21T09:54:39.464Z,100592.16
2017-11-21T09:57:07.071Z,100594.89
2017-11-21T09:59:34.711Z,100590.98
2017-11-21T10:02:02.306Z,100591.96
2017-11-21T10:04:30.001Z,100588.17
2017-11-21T10:06:57.628Z,100581.62
2017-11-21T10:09:25.566Z,100583.92
2017-11-21T10:11:53.228Z,100590.00
2017-11-21T10:14:21.092Z,100589.73
2017-11-21T10:16:48.697Z,100591.59
2017-11-21T10:19:16.339Z,100584.22
2017-11-21T10:21:44.117Z,100580.56
2017-11-21T10:24:11.763Z,100587.92
2017-11-21T10:26:39.390Z,100588.58
2017-11-21T10:29:06.984Z,100585.03
2017-11-21T10:31:34.566Z,100586.50
2017-11-21T10:34:03.060Z,100592.21
2017-11-21T10:36:30.649Z,100584.34
2017-11-21T10:38:58.224Z,100592.70
2017-11-21T10:41:25.909Z,100588.88
2017-11-21T10:43:53.526Z,100587.64
2017-11-21T10:46:21.170Z,100586.66
2017-11-21T10:48:49.101Z,100594.47
2017-11-21T10:51:16.690Z,100593.36
2017-11-21T10:53:44.313Z,100592.18
2017-11-21T10:56:12.189Z,100596.55
2017-11-21T10:58:40.172Z,100585.34
2017-11-21T11:01:07.827Z,100577.86
2017-11-21T11:03:35.407Z,100581.71
2017-11-21T11:06:03.044Z,100576.12
2017-11-21T11:08:30.919Z,100577.05
2017-11-21T11:10:58.558Z,100575.44
2017-11-21T11:13:26.157Z,100579.62
2017-11-21T11:15:53.748Z,100570.81
2017-11-21T11:18:21.353Z,100573.50
2017-11-21T11:20:49.000Z,100577.81
2017-11-21T11:23:16.916Z,100582.87
2017-11-21T11:25:44.594Z,100576.83
2017-11-21T11:28:12.188Z,100576.98
2017-11-21T11:30:39.810Z,100578.23
2017-11-21T11:33:07.520Z,100574.53
2017-11-21T11:35:35.416Z,100567.90
2017-11-21T11:38:03.042Z,100568.31
2017-11-21T11:40:30.630Z,100564.72
2017-11-21T11:42:58.248Z,100561.28
2017-11-21T11:45:25.830Z,100554.99
2017-11-21T11:47:53.456Z,100546.08
2017-11-21T11:50:21.087Z,100543.98
2017-11-21T11:52:48.758Z,100541.31
2017-11-21T11:55:16.415Z,100540.45
2017-11-21T11:57:45.060Z,100543.95
2017-11-21T12:00:15.330Z,100538.66
2017-11-21T12:02:43.393Z,100537.39
2017-11-21T12:05:11.033Z,100549.71
2017-11-21T12:07:38.693Z,100540.48
2017-11-21T12:10:09.709Z,100537.22
2017-11-21T12:12:38.649Z,100540.69
2017-11-21T12:15:06.264Z,100555.18
2017-11-21T12:17:33.870Z,100548.00
2017-11-21T12:20:01.497Z,100555.69
2017-11-21T12:22:29.080Z,100550.45
2017-11-21T12:24:57.079Z,100547.16
2017-11-21T12:27:24.693Z,100553.92
2017-11-21T12:29:52.287Z,100551.90
2017-11-21T12:32:19.918Z,100558.27
2017-11-21T12:34:47.627Z,100555.69
2017-11-21T12:37:15.287Z,100557.09
2017-11-21T12:39:42.885Z,100559.64
2017-11-21T12:42:10.484Z,100562.56
2017-11-21T12:44:38.135Z,100565.56
2017-11-21T12:47:05.731Z,100568.99
2017-11-21T12:49:33.372Z,100565.91
2017-11-21T12:52:01.300Z,100561.06
2017-11-21T12:54:28.971Z,100571.25
2017-11-21T12:56:56.631Z,100567.77
2017-11-21T12:59:24.301Z,100563.97
2017-11-21T13:01:52.162Z,100563.90
2017-11-21T13:04:20.004Z,100564.50
2017-11-21T13:06:47.655Z,100564.00
2017-11-21T13:09:15.523Z,100563.81
2017-11-21T13:11:43.385Z,100563.46
2017-11-21T13:14:11.048Z,100563.34
2017-11-21T13:16:38.666Z,100561.30
2017-11-21T13:19:07.182Z,100561.03
2017-11-21T13:21:34.849Z,100563.47
2017-11-21T13:24:02.487Z,100556.91
2017-11-21T13:26:30.129Z,100546.30
2017-11-21T13:28:57.749Z,100551.27
2017-11-21T13:31:25.359Z,100552.02
2017-11-21T13:33:52.974Z,100558.77
2017-11-21T13:36:20.607Z,100559.98
2017-11-21T13:38:48.501Z,100565.89
2017-11-21T13:41:16.131Z,100557.56
2017-11-21T13:43:43.730Z,100563.17
2017-11-21T13:46:11.373Z,100564.05
2017-11-21T13:48:39.259Z,100564.92
2017-11-21T13:51:06.890Z,100570.41
2017-11-21T13:53:34.521Z,100569.84
2017-11-21T13:56:02.173Z,100574.95
2017-11-21T13:58:29.805Z,100571.39
2017-11-21T14:00:57.977Z,100572.44
2017-11-21T14:03:25.651Z,100566.39
2017-11-21T14:05:53.249Z,100560.86
2017-11-21T14:08:20.836Z,100557.84
2017-11-21T14:10:48.462Z,100558.19
2017-11-21T14:13:16.297Z,100563.67
2017-11-21T14:15:43.918Z,100562.45
2017-11-21T14:18:11.526Z,100571.80
2017-11-21T14:20:39.108Z,100579.77
2017-11-21T14:23:06.717Z,100575.08
2017-11-21T14:25:34.613Z,100571.47
2017-11-21T14:28:02.249Z,100572.30
2017-11-21T14:30:29.838Z,100575.03
2017-11-21T14:32:57.451Z,100577.69
2017-11-21T14:35:25.068Z,100571.27
2017-11-21T14:37:52.934Z,100570.28
2017-11-21T14:40:20.594Z,100576.80
2017-11-21T14:42:48.183Z,100572.59
2017-11-21T14:45:15.834Z,100580.55
2017-11-21T14:47:43.454Z,100573.38
2017-11-21T14:50:11.033Z,100572.81
2017-11-21T14:52:38.673Z,100577.20
2017-11-21T14:55:06.259Z,100565.66
2017-11-21T14:57:33.863Z,100559.30
2017-11-21T15:00:01.797Z,100555.95
2017-11-21T15:02:29.419Z,100550.28
2017-11-21T15:04:57.087Z,100551.04
2017-11-21T15:07:24.873Z,100549.47
2017-11-21T15:09:52.499Z,100548.41
2017-11-21T15:12:20.142Z,100547.08
2017-11-21T15:14:47.774Z,100551.08
2017-11-21T15:17:15.986Z,100547.77
2017-11-21T15:19:43.596Z,100552.20
2017-11-21T15:22:11.177Z,100542.55
2017-11-21T15:24:38.841Z,100542.96
2017-11-21T15:27:06.426Z,100547.39
2017-11-21T15:29:34.044Z,100541.88
2017-11-21T15:32:01.635Z,100535.86
2017-11-21T15:34:29.223Z,100527.42
2017-11-21T15:36:56.849Z,100529.92
2017-11-21T15:39:24.430Z,100529.07
2017-11-21T15:41:52.065Z,100533.27
2017-11-21T15:44:19.676Z,100525.52
2017-11-21T15:46:47.335Z,100530.92
2017-11-21T15:49:14.980Z,100539.14
2017-11-21T15:51:42.562Z,100531.46
2017-11-21T15:54:10.196Z,100536.34
2017-11-21T15:56:37.801Z,100532.67
2017-11-21T15:59:05.404Z,100541.03
2017-11-21T16:01:33.384Z,100536.13
2017-11-21T16:04:00.976Z,100536.26
2017-11-21T16:06:28.596Z,100535.31
2017-11-21T16:08:56.181Z,100534.91
2017-11-21T16:11:23.791Z,100535.34
2017-11-21T16:13:51.398Z,100542.94
2017-11-21T16:16:19.006Z,100544.45
2017-11-21T16:18:46.625Z,100551.94
2017-11-21T16:21:14.222Z,100550.95
2017-11-21T16:23:41.818Z,100554.80
2017-11-21T16:26:09.697Z,100551.03
2017-11-21T16:28:37.579Z,100553.55
2017-11-21T16:31:05.230Z,100551.92
2017-11-21T16:33:32.818Z,100550.09
2017-11-21T16:36:00.417Z,100551.84
2017-11-21T16:38:28.027Z,100550.38
2017-11-21T16:40:55.619Z,100547.78
2017-11-21T16:43:23.240Z,100551.58
2017-11-21T16:45:50.868Z,100554.70
2017-11-21T16:48:18.496Z,100552.56
2017-11-21T16:50:46.163Z,100556.02
2017-11-21T16:53:13.770Z,100544.42
2017-11-21T16:55:41.432Z,100550.52
2017-11-21T16:58:09.021Z,100547.02
2017-11-21T17:00:36.604Z,100541.95
2017-11-21T17:03:04.214Z,100538.73
2017-11-21T17:05:31.803Z,100535.26
2017-11-21T17:07:59.434Z,100530.81
2017-11-21T17:10:27.330Z,100529.49
2017-11-21T17:12:54.912Z,100533.67
2017-11-21T17:15:22.522Z,100533.61
2017-11-21T17:17:50.131Z,100537.30
2017-11-21T17:20:17.769Z,100543.77
2017-11-21T17:22:45.374Z,100532.82
2017-11-21T17:25:13.301Z,100530.73
2017-11-21T17:27:40.927Z,100529.25
2017-11-21T17:30:08.519Z,100526.48
2017-11-21T17:32:36.210Z,100534.98
2017-11-21T17:35:03.912Z,100536.58
2017-11-21T17:37:31.500Z,100532.48
2017-11-21T17:39:59.212Z,100528.09
2017-11-21T17:42:26.894Z,100529.41
2017-11-21T17:44:54.491Z,100528.77
2017-11-21T17:47:22.092Z,100529.72
2017-11-21T17:49:49.729Z,100526.95
2017-11-21T17:52:17.323Z,100532.26
2017-11-21T17:54:44.965Z,100529.88
2017-11-21T17:57:12.605Z,100528.81
2017-11-21T17:59:40.305Z,100527.42
2017-11-21T18:02:07.950Z,100524.92
2017-11-21T18:04:35.535Z,100525.86
2017-11-21T18:07:03.229Z,100521.50
2017-11-21T18:09:30.882Z,100514.84
2017-11-21T18:11:58.473Z,100514.27
2017-11-21T18:14:26.096Z,100513.89
2017-11-21T18:16:53.680Z,100513.14
2017-11-21T18:19:21.432Z,100508.55
2017-11-21T18:21:49.081Z,100515.79
2017-11-21T18:24:16.885Z,100508.03
2017-11-21T18:26:44.508Z,100511.48
2017-11-21T18:29:12.113Z,100512.11
2017-11-21T18:31:39.746Z,100502.34
2017-11-21T18:34:07.325Z,100501.70
2017-11-21T18:36:34.936Z,100501.27
2017-11-21T18:39:02.550Z,100505.75
2017-11-21T18:41:30.166Z,100499.67
2017-11-21T18:43:57.797Z,100504.21
2017-11-21T18:46:25.420Z,100497.31
2017-11-21T18:48:53.021Z,100493.69
2017-11-21T18:51:20.638Z,100499.13
2017-11-21T18:53:48.352Z,100493.45
2017-11-21T18:56:16.030Z,100491.78
2017-11-21T18:58:43.653Z,100493.28
2017-11-21T19:01:11.245Z,100496.35
2017-11-21T19:03:38.886Z,100491.81
2017-11-21T19:06:06.491Z,100489.53
2017-11-21T19:08:34.127Z,100486.09
2017-11-21T19:11:01.732Z,100488.17
2017-11-21T19:13:29.350Z,100491.41
2017-11-21T19:15:56.974Z,100480.44
2017-11-21T19:18:24.641Z,100484.74
2017-11-21T19:20:52.269Z,100481.59
2017-11-21T19:23:19.878Z,100473.77
2017-11-21T19:25:49.185Z,100474.59
2017-11-21T19:28:17.682Z,100472.92
2017-11-21T19:30:45.274Z,100475.98
2017-11-21T19:33:13.017Z,100481.70
2017-11-21T19:35:40.614Z,100472.84
2017-11-21T19:38:08.202Z,100474.73
2017-11-21T19:40:35.820Z,100473.27
2017-11-21T19:43:03.436Z,100476.86
2017-11-21T19:45:31.088Z,100475.58
2017-11-21T19:47:58.690Z,100465.05
2017-11-21T19:50:26.309Z,100469.56
2017-11-21T19:52:53.934Z,100473.07
2017-11-21T19:55:21.535Z,100478.07
2017-11-21T19:57:49.173Z,100471.94
2017-11-21T20:00:16.774Z,100466.27
2017-11-21T20:02:44.365Z,100468.95
2017-11-21T20:05:11.981Z,100466.48
2017-11-21T20:07:39.591Z,100472.77
2017-11-21T20:10:07.244Z,100473.67
2017-11-21T20:12:43.938Z,100479.62
2017-11-21T20:15:11.747Z,100475.69
2017-11-21T20:17:39.360Z,100478.23
2017-11-21T20:20:07.028Z,100478.95
2017-11-21T20:22:34.667Z,100474.63
2017-11-21T20:25:02.250Z,100463.47
2017-11-21T20:30:06.977Z,100473.88
2017-11-21T20:32:39.838Z,100478.19
2017-11-21T20:35:16.163Z,100475.96
2017-11-21T20:37:44.237Z,100476.45
2017-11-21T20:40:12.175Z,100481.31
2017-11-21T20:42:40.386Z,100477.56
2017-11-21T20:45:08.632Z,100473.17
2017-11-21T20:47:37.567Z,100472.11
2017-11-21T20:50:07.854Z,100455.48
2017-11-21T20:52:35.471Z,100454.65
2017-11-21T20:55:03.075Z,100449.61
2017-11-21T20:57:30.709Z,100448.59
2017-11-21T20:59:58.304Z,100456.81
2017-11-21T21:02:25.961Z,100458.97
2017-11-21T21:04:53.602Z,100448.17
2017-11-21T21:07:21.237Z,100455.86
2017-11-21T21:09:48.932Z,100452.64
2017-11-21T21:12:16.570Z,100447.48
2017-11-21T21:14:44.231Z,100451.62
2017-11-21T21:17:11.820Z,100456.27
2017-11-21T21:19:39.426Z,100447.19
2017-11-21T21:22:07.092Z,100442.03
2017-11-21T21:24:34.738Z,100435.75
2017-11-21T21:27:02.381Z,100430.19
2017-11-21T21:29:30.059Z,100432.00
2017-11-21T21:31:57.662Z,100430.94
2017-11-21T21:34:25.287Z,100436.81
2017-11-21T21:36:52.884Z,100433.09
2017-11-21T21:39:20.525Z,100428.44
2017-11-21T21:41:48.257Z,100435.33
2017-11-21T21:44:16.121Z,100434.80
2017-11-21T21:46:43.786Z,100431.92
2017-11-21T21:49:11.394Z,100422.39
2017-11-21T21:51:41.715Z,100415.69
2017-11-21T21:54:09.334Z,100426.21
2017-11-21T21:56:36.917Z,100423.56
2017-11-21T21:59:04.773Z,100426.36
2017-11-21T22:01:32.647Z,100426.05
2017-11-21T22:04:00.309Z,100429.05
2017-11-21T22:06:27.940Z,100434.61
2017-11-21T22:08:55.572Z,100435.52
2017-11-21T22:11:23.184Z,100437.60
2017-11-21T22:13:50.806Z,100435.91
2017-11-21T22:16:19.635Z,100438.41
2017-11-21T22:18:47.209Z,100431.70
2017-11-21T22:21:14.819Z,100429.55
2017-11-21T22:23:42.445Z,100424.73
2017-11-21T22:26:10.044Z,100426.66
2017-11-21T22:28:37.697Z,100420.68
2017-11-21T22:31:05.286Z,100413.75
2017-11-21T22:33:32.865Z,100411.41
2017-11-21T22:36:00.474Z,100409.66
2017-11-21T22:38:28.079Z,100417.12
2017-11-21T22:40:55.697Z,100409.17
2017-11-21T22:43:23.619Z,100404.55
2017-11-21T22:45:51.198Z,100402.87
2017-11-21T22:48:19.060Z,100409.59
2017-11-21T22:50:46.639Z,100414.36
2017-11-21T22:53:14.262Z,100419.50
2017-11-21T22:55:42.855Z,100415.61
2017-11-21T22:58:10.465Z,100410.16
2017-11-21T23:00:38.386Z,100408.67
2017-11-21T23:03:05.977Z,100399.97
2017-11-21T23:05:33.632Z,100387.98
2017-11-21T23:08:01.579Z,100391.20
2017-11-21T23:10:29.175Z,100390.23
2017-11-21T23:12:56.802Z,100408.07
2017-11-21T23:15:24.385Z,100401.37
2017-11-21T23:17:52.058Z,100402.83
2017-11-21T23:20:19.895Z,100394.17
2017-11-21T23:22:47.487Z,100390.80
2017-11-21T23:25:15.097Z,100388.69
2017-11-21T23:27:42.684Z,100384.56
2017-11-21T23:30:10.313Z,100385.87
2017-11-21T23:32:38.210Z,100392.13
2017-11-21T23:35:05.795Z,100386.66
2017-11-21T23:37:33.406Z,100381.83
2017-11-21T23:40:01.298Z,100382.69
2017-11-21T23:42:28.933Z,100372.00
2017-11-21T23:44:56.530Z,100360.34
2017-11-21T23:47:24.126Z,100357.01
2017-11-21T23:49:51.738Z,100355.34
2017-11-21T23:52:19.352Z,100356.02
2017-11-21T23:54:47.012Z,100352.84
2017-11-21T23:57:14.630Z,100345.75
2017-11-21T23:59:42.228Z,100352.06
